createdAt,value
2018-05-23T00:00:48.006Z,7.87
2018-05-23T00:03:15.530Z,7.43
2018-05-23T00:05:43.095Z,7.67
2018-05-23T00:17:18.932Z,7.83
2018-05-23T00:19:46.464Z,8.87
2018-05-23T00:22:14.079Z,8.93
2018-05-23T00:33:58.996Z,9.27
2018-05-23T00:36:26.631Z,9.17
2018-05-23T00:38:54.243Z,9.30
2018-05-23T00:41:21.984Z,8.53
2018-05-23T00:52:47.955Z,8.70
2018-05-23T00:55:27.269Z,8.67
2018-05-23T00:57:54.845Z,8.50
2018-05-23T01:09:30.481Z,8.07
2018-05-23T01:12:01.292Z,7.80
2018-05-23T01:14:28.889Z,8.13
2018-05-23T01:16:56.451Z,7.70
2018-05-23T01:28:30.343Z,8.17
2018-05-23T01:30:57.923Z,9.17
2018-05-23T01:33:25.475Z,9.37
2018-05-23T01:45:01.870Z,9.87
2018-05-23T01:47:29.432Z,9.73
2018-05-23T01:49:57.008Z,9.80
2018-05-23T02:01:39.628Z,10.00
2018-05-23T02:04:07.243Z,9.03
2018-05-23T02:06:34.823Z,9.63
2018-05-23T02:09:02.458Z,10.73
2018-05-23T02:21:13.372Z,10.33
2018-05-23T02:23:40.939Z,10.67
2018-05-23T02:26:08.572Z,10.60
2018-05-23T02:37:43.055Z,9.83
2018-05-23T02:40:10.576Z,9.87
2018-05-23T02:42:40.184Z,9.90
2018-05-23T02:54:10.011Z,9.43
2018-05-23T02:56:37.557Z,8.90
2018-05-23T02:59:05.115Z,9.53
2018-05-23T03:10:26.814Z,9.40
2018-05-23T03:12:54.482Z,9.80
2018-05-23T03:15:22.111Z,9.73
2018-05-23T03:17:49.743Z,9.80
2018-05-23T03:29:06.668Z,8.30
2018-05-23T03:31:34.311Z,8.83
2018-05-23T03:34:02.791Z,8.87
2018-05-23T03:45:39.040Z,9.23
2018-05-23T03:48:06.626Z,8.70
2018-05-23T03:50:34.173Z,9.03
2018-05-23T04:02:11.590Z,9.33
2018-05-23T04:04:48.949Z,8.83
2018-05-23T04:07:29.231Z,9.13
2018-05-23T04:21:31.888Z,9.73
2018-05-23T04:23:59.441Z,9.70
2018-05-23T04:26:27.052Z,10.23
2018-05-23T04:38:02.885Z,9.43
2018-05-23T04:40:30.410Z,10.47
2018-05-23T04:43:00.740Z,11.33
2018-05-23T04:54:14.237Z,9.63
2018-05-23T04:56:41.753Z,10.33
2018-05-23T04:59:09.334Z,9.43
2018-05-23T05:10:39.965Z,10.10
2018-05-23T05:13:07.656Z,10.73
2018-05-23T05:15:35.311Z,11.00
2018-05-23T05:30:05.272Z,11.33
2018-05-23T05:32:32.911Z,11.20
2018-05-23T05:35:00.576Z,10.40
2018-05-23T05:46:37.384Z,11.43
2018-05-23T05:49:05.055Z,11.27
2018-05-23T05:51:32.720Z,11.77
2018-05-23T06:03:08.624Z,11.97
2018-05-23T06:05:36.328Z,11.57
2018-05-23T06:08:03.911Z,11.80
2018-05-23T06:19:39.467Z,12.10
2018-05-23T06:22:07.044Z,12.63
2018-05-23T06:24:34.620Z,12.47
2018-05-23T06:36:22.905Z,11.97
2018-05-23T06:38:50.488Z,12.17
2018-05-23T06:41:18.083Z,13.40
2018-05-23T06:43:45.836Z,13.67
2018-05-23T06:55:22.556Z,12.67
2018-05-23T06:57:50.975Z,12.10
2018-05-23T07:00:18.701Z,12.77
2018-05-23T07:12:06.375Z,14.60
2018-05-23T07:14:33.946Z,13.83
2018-05-23T07:17:02.130Z,14.17
2018-05-23T07:30:20.763Z,14.40
2018-05-23T07:32:48.528Z,14.70
2018-05-23T07:35:16.201Z,14.70
2018-05-23T07:46:38.273Z,15.50
2018-05-23T07:49:05.795Z,13.93
2018-05-23T07:51:33.427Z,15.23
2018-05-23T08:02:57.893Z,13.80
2018-05-23T08:05:25.411Z,14.43
2018-05-23T08:07:53.036Z,13.37
2018-05-23T08:10:20.687Z,13.63
2018-05-23T08:21:26.877Z,12.57
2018-05-23T08:23:54.542Z,13.60
2018-05-23T08:26:22.176Z,12.93
2018-05-23T08:37:58.171Z,13.33
2018-05-23T08:40:25.811Z,13.30
2018-05-23T08:42:53.387Z,11.80
2018-05-23T08:54:29.895Z,12.93
2018-05-23T08:56:57.414Z,12.50
2018-05-23T08:59:25.003Z,13.27
2018-05-23T09:01:52.679Z,13.73
2018-05-23T09:07:03.043Z,13.30
2018-05-23T09:09:35.158Z,13.30
2018-05-23T09:12:02.787Z,13.73
2018-05-23T09:14:30.334Z,13.50
2018-05-23T09:16:57.990Z,12.57
2018-05-23T09:30:07.260Z,13.93
2018-05-23T09:32:34.839Z,13.23
2018-05-23T09:35:02.412Z,13.67
2018-05-23T09:37:34.812Z,13.50
2018-05-23T09:45:30.041Z,14.53
2018-05-23T09:47:57.576Z,14.13
2018-05-23T09:50:25.191Z,13.93
2018-05-23T09:52:52.823Z,14.30
2018-05-23T10:03:09.755Z,13.00
2018-05-23T10:05:37.415Z,14.30
2018-05-23T10:08:04.978Z,13.40
2018-05-23T10:10:39.638Z,13.27
2018-05-23T10:21:46.426Z,13.77
2018-05-23T10:24:14.080Z,13.80
2018-05-23T10:26:41.765Z,13.13
2018-05-23T10:38:18.160Z,14.50
2018-05-23T10:40:45.822Z,13.33
2018-05-23T10:43:13.516Z,13.33
2018-05-23T10:54:49.702Z,12.80
2018-05-23T10:57:17.383Z,13.33
2018-05-23T10:59:45.014Z,12.70
2018-05-23T11:08:19.029Z,13.27
2018-05-23T11:10:48.066Z,13.00
2018-05-23T11:13:15.663Z,13.10
2018-05-23T11:15:43.203Z,12.20
2018-05-23T11:18:10.747Z,12.07
2018-05-23T11:20:39.362Z,11.33
2018-05-23T11:23:07.802Z,11.50
2018-05-23T11:25:35.730Z,11.30
2018-05-23T11:28:05.979Z,10.23
2018-05-23T11:30:33.450Z,9.03
2018-05-23T11:33:00.948Z,11.57
2018-05-23T11:35:28.449Z,11.37
2018-05-23T11:37:55.969Z,11.17
2018-05-23T11:40:24.217Z,11.53
2018-05-23T11:42:54.932Z,11.80
2018-05-23T11:45:23.335Z,12.37
2018-05-23T11:47:50.821Z,11.50
2018-05-23T11:50:18.333Z,11.37
2018-05-23T11:52:45.829Z,11.13
2018-05-23T11:55:15.789Z,11.43
2018-05-23T11:57:46.195Z,12.13
2018-05-23T12:00:16.244Z,11.00
2018-05-23T12:02:46.882Z,10.80
2018-05-23T12:05:14.378Z,10.70
2018-05-23T12:07:41.850Z,11.10
2018-05-23T12:10:09.346Z,11.30
2018-05-23T12:12:38.805Z,10.63
2018-05-23T12:15:10.249Z,10.80
2018-05-23T12:17:40.201Z,10.57
2018-05-23T12:20:07.699Z,9.77
2018-05-23T12:22:35.206Z,11.03
2018-05-23T12:25:02.678Z,10.03
2018-05-23T12:27:30.178Z,10.87
2018-05-23T12:30:00.034Z,10.87
2018-05-23T12:32:27.537Z,9.70
2018-05-23T12:34:55.884Z,9.40
2018-05-23T12:37:26.119Z,8.57
2018-05-23T12:39:53.642Z,9.80
2018-05-23T12:42:21.126Z,10.13
2018-05-23T12:44:48.646Z,10.30
2018-05-23T12:47:16.167Z,10.60
2018-05-23T12:49:43.688Z,10.20
2018-05-23T12:52:11.947Z,10.30
2018-05-23T12:54:42.246Z,10.07
2018-05-23T12:57:09.756Z,10.17
2018-05-23T12:59:37.253Z,10.00
2018-05-23T13:02:04.727Z,9.03
2018-05-23T13:04:32.219Z,8.30
2018-05-23T13:06:59.722Z,7.80
2018-05-23T13:09:27.850Z,8.37
2018-05-23T13:11:56.876Z,8.97
2018-05-23T13:14:25.070Z,8.10
2018-05-23T13:16:52.566Z,9.33
2018-05-23T13:19:20.067Z,8.70
2018-05-23T13:21:47.997Z,8.57
2018-05-23T13:24:16.547Z,8.13
2018-05-23T13:26:47.819Z,8.23
2018-05-23T13:29:15.322Z,8.67
2018-05-23T13:31:42.797Z,8.03
2018-05-23T13:34:10.281Z,8.27
2018-05-23T13:36:37.774Z,8.13
2018-05-23T13:39:10.485Z,7.73
2018-05-23T13:41:42.350Z,8.40
2018-05-23T13:44:11.170Z,8.50
2018-05-23T13:46:38.695Z,7.70
2018-05-23T13:49:06.233Z,6.90
2018-05-23T13:51:33.763Z,6.63
2018-05-23T13:54:01.402Z,6.93
2018-05-23T13:56:31.158Z,7.93
2018-05-23T13:59:01.995Z,6.97
2018-05-23T14:01:34.955Z,9.57
2018-05-23T14:04:02.490Z,8.40
2018-05-23T14:06:30.048Z,8.43
2018-05-23T14:08:57.623Z,8.90
2018-05-23T14:11:25.398Z,9.47
2018-05-23T14:16:55.777Z,7.20
2018-05-23T14:22:00.786Z,7.60
2018-05-23T14:24:28.320Z,7.73
2018-05-23T14:26:55.926Z,7.83
2018-05-23T14:29:24.287Z,7.40
2018-05-23T14:39:51.094Z,6.93
2018-05-23T14:42:18.692Z,6.07
2018-05-23T14:44:46.336Z,4.27
2018-05-23T14:47:16.595Z,3.70
2018-05-23T14:53:03.766Z,3.10
2018-05-23T14:55:44.155Z,2.87
2018-05-23T14:58:11.718Z,3.00
2018-05-23T15:00:42.497Z,3.20
2018-05-23T15:03:13.584Z,3.10
2018-05-23T15:08:28.120Z,3.47
2018-05-23T15:10:55.959Z,3.23
2018-05-23T15:13:23.515Z,3.63
2018-05-23T15:15:51.075Z,3.00
2018-05-23T15:18:18.595Z,3.40
2018-05-23T15:20:46.213Z,3.83
2018-05-23T15:32:34.239Z,4.10
2018-05-23T15:35:01.845Z,3.67
2018-05-23T15:37:29.515Z,2.73
2018-05-23T15:49:05.119Z,3.97
2018-05-23T15:51:32.664Z,3.90
2018-05-23T15:54:00.260Z,4.90
2018-05-23T16:05:36.427Z,4.10
2018-05-23T16:08:04.059Z,3.77
2018-05-23T16:10:31.607Z,3.70
2018-05-23T16:22:07.611Z,3.60
2018-05-23T16:24:35.198Z,3.77
2018-05-23T16:27:02.687Z,3.00
2018-05-23T16:29:31.958Z,2.90
2018-05-23T16:41:08.011Z,3.40
2018-05-23T16:43:35.635Z,3.33
2018-05-23T16:46:03.251Z,2.93
2018-05-23T16:57:39.175Z,3.60
2018-05-23T17:00:06.753Z,3.47
2018-05-23T17:02:34.358Z,3.60
2018-05-23T17:14:09.559Z,3.73
2018-05-23T17:16:37.096Z,4.90
2018-05-23T17:19:04.634Z,4.50
2018-05-23T17:30:33.363Z,5.20
2018-05-23T17:33:00.905Z,6.00
2018-05-23T17:35:28.618Z,5.67
2018-05-23T17:37:56.259Z,5.50
2018-05-23T17:49:32.262Z,5.03
2018-05-23T17:51:59.824Z,5.10
2018-05-23T17:54:28.337Z,5.33
2018-05-23T18:06:04.067Z,6.00
2018-05-23T18:08:31.618Z,6.57
2018-05-23T18:10:59.247Z,5.90
2018-05-23T18:22:26.492Z,6.00
2018-05-23T18:24:54.095Z,6.33
2018-05-23T18:27:21.655Z,6.40
2018-05-23T18:29:49.502Z,6.57
2018-05-23T18:40:48.015Z,6.53
2018-05-23T18:43:15.624Z,7.40
2018-05-23T18:45:43.089Z,7.20
2018-05-23T18:48:11.019Z,6.70
2018-05-23T18:50:40.032Z,6.73
2018-05-23T18:58:48.671Z,7.00
2018-05-23T19:01:16.974Z,7.20
2018-05-23T19:15:25.921Z,7.77
2018-05-23T19:17:53.444Z,7.33
2018-05-23T19:20:20.977Z,7.80
2018-05-23T19:22:48.567Z,8.27
2018-05-23T19:25:27.251Z,7.17
2018-05-23T19:27:56.246Z,7.07
2018-05-23T19:30:24.163Z,7.73
2018-05-23T19:32:51.768Z,7.33
2018-05-23T19:35:19.269Z,7.90
2018-05-23T19:37:46.894Z,7.50
2018-05-23T19:40:14.441Z,7.53
2018-05-23T19:42:46.447Z,8.00
2018-05-23T19:45:18.838Z,8.73
2018-05-23T19:47:50.118Z,9.07
2018-05-23T19:50:17.684Z,8.93
2018-05-23T19:52:45.259Z,9.20
2018-05-23T19:55:12.919Z,9.07
2018-05-23T19:57:40.563Z,9.37
2018-05-23T20:00:08.176Z,8.87
2018-05-23T20:02:36.493Z,9.00
2018-05-23T20:05:07.115Z,8.57
2018-05-23T20:07:35.728Z,9.00
2018-05-23T20:10:03.295Z,9.73
2018-05-23T20:12:30.842Z,10.13
2018-05-23T20:14:58.420Z,8.80
2018-05-23T20:17:26.719Z,8.70
2018-05-23T20:19:58.468Z,9.63
2018-05-23T20:22:30.231Z,9.50
2018-05-23T20:24:57.775Z,8.40
2018-05-23T20:27:25.327Z,10.30
2018-05-23T20:29:52.848Z,10.83
2018-05-23T20:32:21.411Z,11.20
2018-05-23T20:34:49.574Z,10.83
2018-05-23T20:37:19.216Z,12.60
2018-05-23T20:39:50.807Z,14.10
2018-05-23T20:42:28.370Z,12.57
2018-05-23T20:44:55.883Z,10.07
2018-05-23T20:47:23.404Z,9.33
2018-05-23T20:49:51.218Z,8.20
2018-05-23T20:52:40.373Z,8.93
2018-05-23T20:55:08.061Z,9.10
2018-05-23T20:57:36.012Z,8.80
2018-05-23T21:00:07.012Z,9.17
2018-05-23T21:02:35.553Z,9.00
2018-05-23T21:05:03.217Z,9.03
2018-05-23T21:07:30.808Z,8.23
2018-05-23T21:10:03.269Z,9.30
2018-05-23T21:12:35.490Z,9.03
2018-05-23T21:15:07.431Z,8.90
2018-05-23T21:17:36.361Z,8.90
2018-05-23T21:20:04.043Z,9.77
2018-05-23T21:22:31.563Z,8.63
2018-05-23T21:24:59.132Z,9.77
2018-05-23T21:27:26.708Z,9.23
2018-05-23T21:29:59.390Z,9.53
2018-05-23T21:32:35.323Z,9.73
2018-05-23T21:37:38.235Z,10.17
2018-05-23T21:40:05.766Z,9.87
2018-05-23T21:42:33.283Z,9.37
2018-05-23T21:45:01.833Z,10.73
2018-05-23T21:47:30.592Z,10.03
2018-05-23T21:52:32.084Z,9.20
2018-05-23T21:55:02.774Z,9.83
2018-05-23T21:57:30.301Z,10.00
2018-05-23T21:59:57.844Z,10.60
2018-05-23T22:02:25.515Z,9.90
2018-05-23T22:16:19.158Z,10.30
2018-05-23T22:18:46.675Z,9.90
2018-05-23T22:21:14.331Z,10.23
2018-05-23T22:34:13.191Z,11.20
2018-05-23T22:36:40.730Z,11.07
2018-05-23T22:39:08.375Z,10.90
2018-05-23T22:50:43.859Z,10.70
2018-05-23T22:53:11.404Z,10.70
2018-05-23T22:55:38.933Z,11.33
2018-05-23T22:58:12.471Z,11.07
2018-05-23T23:06:48.456Z,11.63
2018-05-23T23:09:16.000Z,11.50
2018-05-23T23:11:43.591Z,11.20
2018-05-23T23:14:11.567Z,11.73
2018-05-23T23:24:59.833Z,12.77
2018-05-23T23:27:27.387Z,12.60
2018-05-23T23:29:54.984Z,13.47
2018-05-23T23:32:22.631Z,12.83
2018-05-23T23:45:03.880Z,12.03
2018-05-23T23:47:31.433Z,11.87
2018-05-23T23:49:58.999Z,12.93
